createdAt,value
2023-04-09T00:02:43.643Z,101287.69
2023-04-09T00:05:45.094Z,101287.78
2023-04-09T00:08:46.525Z,101292.16
2023-04-09T00:11:48.345Z,101289.44
2023-04-09T00:14:50.330Z,101282.31
2023-04-09T00:17:52.275Z,101278.84
2023-04-09T00:20:54.092Z,101280.81
2023-04-09T00:23:56.532Z,101273.81
2023-04-09T00:26:58.345Z,101271.97
2023-04-09T00:30:00.143Z,101267.66
2023-04-09T00:33:02.221Z,101266.78
2023-04-09T00:36:04.299Z,101267.66
2023-04-09T00:39:06.208Z,101265.88
2023-04-09T00:42:08.233Z,101259.72
2023-04-09T00:45:10.325Z,101268.53
2023-04-09T00:48:13.900Z,101265.03
2023-04-09T00:51:16.342Z,101264.94
2023-04-09T00:54:18.997Z,101266.78
2023-04-09T00:57:20.777Z,101270.34
2023-04-09T01:00:22.774Z,101272.06
2023-04-09T01:03:24.704Z,101267.63
2023-04-09T01:06:48.592Z,101267.66
2023-04-09T01:10:17.244Z,101269.41
2023-04-09T01:13:42.888Z,101270.28
2023-04-09T01:16:50.835Z,101265.06
2023-04-09T01:20:06.594Z,101269.53
2023-04-09T01:23:46.721Z,101267.03
2023-04-09T01:26:58.392Z,101261.75
2023-04-09T01:30:06.473Z,101265.28
2023-04-09T01:33:10.761Z,101262.53
2023-04-09T01:36:14.785Z,101261.69
2023-04-09T01:39:16.772Z,101262.53
2023-04-09T01:42:20.028Z,101267.81
2023-04-09T01:45:22.423Z,101264.31
2023-04-09T01:48:24.899Z,101262.59
2023-04-09T01:51:27.254Z,101266.19
2023-04-09T01:54:29.094Z,101257.50
2023-04-09T01:57:30.963Z,101270.59
2023-04-09T02:00:41.363Z,101262.59
2023-04-09T02:03:55.920Z,101263.47
2023-04-09T02:07:09.930Z,101261.78
2023-04-09T02:10:13.565Z,101267.03
2023-04-09T02:13:18.262Z,101267.16
2023-04-09T02:16:21.770Z,101266.31
2023-04-09T02:19:23.764Z,101272.41
2023-04-09T02:22:25.182Z,101263.69
2023-04-09T02:25:27.654Z,101267.25
2023-04-09T02:28:29.432Z,101263.75
2023-04-09T02:31:31.383Z,101264.72
2023-04-09T02:34:33.178Z,101260.31
2023-04-09T02:37:34.939Z,101259.44
2023-04-09T02:40:37.349Z,101260.34
2023-04-09T02:43:38.982Z,101263.91
2023-04-09T02:46:42.234Z,101262.16
2023-04-09T02:49:44.745Z,101263.13
2023-04-09T02:52:47.362Z,101262.28
2023-04-09T02:55:49.260Z,101258.78
2023-04-09T02:58:54.039Z,101271.94
2023-04-09T03:01:56.521Z,101264.03
2023-04-09T03:04:58.084Z,101267.56
2023-04-09T03:07:59.856Z,101258.78
2023-04-09T03:11:01.720Z,101264.88
2023-04-09T03:14:03.684Z,101264.91
2023-04-09T03:17:05.912Z,101265.88
2023-04-09T03:20:08.189Z,101255.59
2023-04-09T03:23:12.805Z,101252.97
2023-04-09T03:26:19.525Z,101254.72
2023-04-09T03:29:43.529Z,101250.28
2023-04-09T03:32:45.549Z,101253.94
2023-04-09T03:35:49.660Z,101256.59
2023-04-09T03:38:58.038Z,101257.38
2023-04-09T03:42:05.200Z,101245.97
2023-04-09T03:45:16.788Z,101246.81
2023-04-09T03:48:22.963Z,101257.38
2023-04-09T03:51:26.943Z,101248.59
2023-04-09T03:54:32.586Z,101246.94
2023-04-09T03:57:35.211Z,101253.09
2023-04-09T04:00:39.383Z,101254.91
2023-04-09T04:04:00.406Z,101252.28
2023-04-09T04:07:16.959Z,101252.31
2023-04-09T04:10:29.838Z,101253.09
2023-04-09T04:13:32.036Z,101246.91
2023-04-09T04:16:41.169Z,101248.78
2023-04-09T04:19:43.921Z,101245.19
2023-04-09T04:23:07.711Z,101248.84
2023-04-09T04:26:13.321Z,101256.75
2023-04-09T04:29:16.346Z,101245.41
2023-04-09T04:32:24.886Z,101253.34
2023-04-09T04:35:28.653Z,101253.31
2023-04-09T04:38:35.032Z,101257.81
2023-04-09T04:41:40.312Z,101256.09
2023-04-09T04:44:50.363Z,101261.41
2023-04-09T04:48:12.374Z,101261.41
2023-04-09T04:51:13.873Z,101264.97
2023-04-09T04:57:46.182Z,101266.66
2023-04-09T05:01:09.294Z,101268.47
2023-04-09T05:04:11.899Z,101263.28
2023-04-09T05:07:14.330Z,101265.06
2023-04-09T05:10:23.670Z,101272.16
2023-04-09T05:13:25.841Z,101268.63
2023-04-09T05:16:28.487Z,101276.53
2023-04-09T05:19:37.672Z,101269.59
2023-04-09T05:22:39.123Z,101270.47
2023-04-09T05:25:41.863Z,101279.22
2023-04-09T05:28:52.327Z,101270.44
2023-04-09T05:31:56.707Z,101277.41
2023-04-09T05:35:06.795Z,101282.75
2023-04-09T05:38:14.066Z,101277.47
2023-04-09T05:41:22.736Z,101272.22
2023-04-09T05:44:37.683Z,101286.19
2023-04-09T05:47:47.130Z,101277.47
2023-04-09T05:50:55.756Z,101283.53
2023-04-09T05:54:01.246Z,101290.47
2023-04-09T05:57:07.490Z,101287.91
2023-04-09T06:00:13.332Z,101282.53
2023-04-09T06:03:23.317Z,101288.63
2023-04-09T06:06:25.328Z,101285.84
2023-04-09T06:09:27.892Z,101294.47
2023-04-09T06:12:35.266Z,101290.09
2023-04-09T06:15:39.556Z,101291.75
2023-04-09T06:18:42.427Z,101296.13
2023-04-09T06:21:44.349Z,101301.31
2023-04-09T06:24:48.744Z,101297.81
2023-04-09T06:27:50.510Z,101294.19
2023-04-09T06:30:53.801Z,101298.50
2023-04-09T06:33:56.437Z,101296.78
2023-04-09T06:36:58.056Z,101297.56
2023-04-09T06:40:01.386Z,101299.31
2023-04-09T06:43:04.099Z,101305.34
2023-04-09T06:46:17.174Z,101306.13
2023-04-09T06:49:18.999Z,101306.03
2023-04-09T06:52:21.404Z,101306.00
2023-04-09T06:55:23.348Z,101303.38
2023-04-09T06:58:24.857Z,101313.78
2023-04-09T07:01:27.751Z,101315.41
2023-04-09T07:04:29.981Z,101308.31
2023-04-09T07:07:32.052Z,101317.81
2023-04-09T07:10:33.828Z,101314.28
2023-04-09T07:13:35.768Z,101318.59
2023-04-09T07:16:37.757Z,101312.34
2023-04-09T07:19:39.582Z,101313.09
2023-04-09T07:22:41.873Z,101315.66
2023-04-09T07:25:43.677Z,101318.09
2023-04-09T07:28:45.418Z,101317.22
2023-04-09T07:31:47.571Z,101315.34
2023-04-09T07:34:52.045Z,101316.06
2023-04-09T07:37:53.859Z,101316.84
2023-04-09T07:40:55.939Z,101329.13
2023-04-09T07:43:58.040Z,101327.25
2023-04-09T07:46:59.518Z,101323.81
2023-04-09T07:50:01.234Z,101323.63
2023-04-09T07:53:05.619Z,101326.25
2023-04-09T07:56:07.773Z,101327.13
2023-04-09T07:59:09.574Z,101326.91
2023-04-09T08:02:14.350Z,101326.09
2023-04-09T08:05:17.040Z,101330.53
2023-04-09T08:08:19.774Z,101330.44
2023-04-09T08:11:25.159Z,101333.72
2023-04-09T08:14:26.806Z,101340.59
2023-04-09T08:17:29.535Z,101337.84
2023-04-09T08:20:32.942Z,101331.28
2023-04-09T08:23:34.740Z,101340.41
2023-04-09T08:26:37.451Z,101338.63
2023-04-09T08:29:40.420Z,101335.34
2023-04-09T08:32:42.514Z,101337.56
2023-04-09T08:35:44.706Z,101336.84
2023-04-09T08:38:47.094Z,101335.59
2023-04-09T08:41:51.953Z,101337.06
2023-04-09T08:44:53.870Z,101337.97
2023-04-09T08:47:59.602Z,101341.19
2023-04-09T08:51:01.786Z,101338.59
2023-04-09T08:54:04.822Z,101332.47
2023-04-09T08:57:07.479Z,101335.25
2023-04-09T09:00:09.922Z,101339.50
2023-04-09T09:03:15.805Z,101332.81
2023-04-09T09:06:22.433Z,101338.41
2023-04-09T09:09:24.781Z,101334.56
2023-04-09T09:12:40.553Z,101334.81
2023-04-09T09:15:42.384Z,101334.66
2023-04-09T09:18:44.794Z,101332.72
2023-04-09T09:21:56.129Z,101325.38
2023-04-09T09:24:58.888Z,101329.88
2023-04-09T09:28:08.971Z,101329.69
2023-04-09T09:31:12.378Z,101323.75
2023-04-09T09:34:13.862Z,101326.53
2023-04-09T09:37:28.865Z,101331.13
2023-04-09T09:40:30.689Z,101323.47
2023-04-09T09:43:42.586Z,101329.03
2023-04-09T09:46:45.425Z,101328.56
2023-04-09T09:49:51.111Z,101324.78
2023-04-09T09:53:03.204Z,101324.78
2023-04-09T09:56:07.083Z,101329.16
2023-04-09T09:59:18.604Z,101325.66
2023-04-09T10:02:23.470Z,101327.69
2023-04-09T10:05:27.439Z,101316.63
2023-04-09T10:08:31.141Z,101317.19
2023-04-09T10:11:36.296Z,101323.19
2023-04-09T10:14:39.444Z,101317.72
2023-04-09T10:17:41.283Z,101309.41
2023-04-09T10:21:30.461Z,101305.56
2023-04-09T10:24:34.638Z,101314.16
2023-04-09T10:27:36.469Z,101315.84
2023-04-09T10:30:38.347Z,101304.97
2023-04-09T10:33:43.461Z,101304.63
2023-04-09T10:36:55.243Z,101306.47
2023-04-09T10:40:21.598Z,101301.69
2023-04-09T10:43:24.081Z,101291.47
2023-04-09T10:46:30.931Z,101288.53
2023-04-09T10:49:38.074Z,101283.34
2023-04-09T10:52:40.895Z,101288.41
2023-04-09T10:55:49.383Z,101293.47
2023-04-09T10:58:51.393Z,101289.16
2023-04-09T11:01:54.532Z,101278.22
2023-04-09T11:05:18.180Z,101268.78
2023-04-09T11:08:21.907Z,101271.81
2023-04-09T11:11:26.690Z,101274.22
2023-04-09T11:14:28.532Z,101270.25
2023-04-09T11:17:35.830Z,101265.09
2023-04-09T11:20:38.828Z,101277.06
2023-04-09T11:23:40.236Z,101273.47
2023-04-09T11:26:42.025Z,101273.81
2023-04-09T11:29:43.453Z,101272.34
2023-04-09T11:32:46.081Z,101276.56
2023-04-09T11:35:49.012Z,101266.34
2023-04-09T11:38:51.515Z,101272.34
2023-04-09T11:41:53.550Z,101264.72
2023-04-09T11:44:55.334Z,101258.47
2023-04-09T11:47:57.512Z,101247.66
2023-04-09T11:51:03.690Z,101262.84
2023-04-09T11:54:06.536Z,101255.81
2023-04-09T11:57:08.342Z,101265.50
2023-04-09T12:00:19.621Z,101269.72
2023-04-09T12:03:28.420Z,101258.16
2023-04-09T12:06:30.756Z,101261.66
2023-04-09T12:09:32.141Z,101258.09
2023-04-09T12:12:47.273Z,101259.66
2023-04-09T12:15:49.617Z,101255.97
2023-04-09T12:18:55.645Z,101257.19
2023-04-09T12:21:58.276Z,101250.44
2023-04-09T12:25:00.401Z,101249.25
2023-04-09T12:28:03.747Z,101247.63
2023-04-09T12:31:10.786Z,101244.50
2023-04-09T12:34:12.753Z,101240.28
2023-04-09T12:37:14.518Z,101239.53
2023-04-09T12:40:16.986Z,101235.88
2023-04-09T12:43:19.172Z,101236.56
2023-04-09T12:46:20.802Z,101230.88
2023-04-09T12:49:22.618Z,101224.47
2023-04-09T12:52:24.687Z,101222.00
2023-04-09T12:55:27.896Z,101223.47
2023-04-09T12:58:29.773Z,101213.53
2023-04-09T13:01:32.750Z,101213.78
2023-04-09T13:04:34.951Z,101205.84
2023-04-09T13:07:37.081Z,101211.63
2023-04-09T13:10:39.163Z,101201.25
2023-04-09T13:13:42.584Z,101194.19
2023-04-09T13:16:44.551Z,101199.00
2023-04-09T13:19:50.052Z,101199.75
2023-04-09T13:22:52.700Z,101193.44
2023-04-09T13:25:54.733Z,101193.72
2023-04-09T13:28:57.532Z,101195.38
2023-04-09T13:32:01.695Z,101189.56
2023-04-09T13:35:03.852Z,101183.81
2023-04-09T13:38:06.094Z,101169.75
2023-04-09T13:41:07.569Z,101175.44
2023-04-09T13:44:12.254Z,101167.13
2023-04-09T13:47:15.893Z,101153.16
2023-04-09T13:50:17.783Z,101156.63
2023-04-09T13:53:20.334Z,101146.00
2023-04-09T13:56:24.589Z,101151.72
2023-04-09T13:59:26.500Z,101145.00
2023-04-09T14:02:29.258Z,101144.31
2023-04-09T14:05:32.648Z,101145.94
2023-04-09T14:08:35.530Z,101145.84
2023-04-09T14:11:40.106Z,101137.03
2023-04-09T14:14:41.986Z,101135.97
2023-04-09T14:17:44.287Z,101127.81
2023-04-09T14:20:46.411Z,101131.69
2023-04-09T14:23:48.360Z,101130.59
2023-04-09T14:26:52.983Z,101126.88
2023-04-09T14:29:55.868Z,101123.78
2023-04-09T14:32:57.682Z,101120.94
2023-04-09T14:36:00.179Z,101117.13
2023-04-09T14:39:04.126Z,101109.94
2023-04-09T14:42:06.255Z,101107.31
2023-04-09T14:45:08.454Z,101107.34
2023-04-09T14:48:10.275Z,101106.88
2023-04-09T14:51:12.198Z,101109.22
2023-04-09T14:54:14.098Z,101100.19
2023-04-09T14:57:15.993Z,101092.31
2023-04-09T15:00:17.385Z,101103.59
2023-04-09T15:03:19.077Z,101104.56
2023-04-09T15:06:21.072Z,101099.66
2023-04-09T15:09:23.520Z,101099.53
2023-04-09T15:12:27.180Z,101097.44
2023-04-09T15:15:29.558Z,101090.28
2023-04-09T15:18:30.958Z,101092.38
2023-04-09T15:21:36.056Z,101083.56
2023-04-09T15:24:38.193Z,101078.75
2023-04-09T15:27:39.670Z,101081.03
2023-04-09T15:30:41.884Z,101079.16
2023-04-09T15:33:44.614Z,101078.47
2023-04-09T15:36:46.465Z,101085.34
2023-04-09T15:39:48.297Z,101076.25
2023-04-09T15:42:50.072Z,101076.69
2023-04-09T15:45:51.921Z,101075.38
2023-04-09T15:49:11.726Z,101070.69
2023-04-09T15:52:13.633Z,101078.69
2023-04-09T15:55:15.118Z,101080.31
2023-04-09T15:58:17.194Z,101066.59
2023-04-09T16:01:19.462Z,101079.34
2023-04-09T16:04:21.161Z,101079.34
2023-04-09T16:07:23.069Z,101082.97
2023-04-09T16:10:25.255Z,101079.50
2023-04-09T16:13:27.450Z,101078.97
2023-04-09T16:16:29.495Z,101068.78
2023-04-09T16:19:31.372Z,101067.41
2023-04-09T16:22:33.529Z,101069.91
2023-04-09T16:25:36.129Z,101070.41
2023-04-09T16:28:38.192Z,101072.72
2023-04-09T16:31:42.961Z,101070.16
2023-04-09T16:34:44.513Z,101074.50
2023-04-09T16:37:46.423Z,101070.13
2023-04-09T16:40:48.357Z,101063.50
2023-04-09T16:43:51.733Z,101068.28
2023-04-09T16:46:53.707Z,101074.03
2023-04-09T16:49:55.124Z,101069.03
2023-04-09T16:52:57.185Z,101059.84
2023-04-09T16:56:02.343Z,101069.34
2023-04-09T16:59:04.024Z,101074.25
2023-04-09T17:02:09.269Z,101071.84
2023-04-09T17:05:11.361Z,101072.75
2023-04-09T17:08:13.974Z,101063.91
2023-04-09T17:11:17.019Z,101071.69
2023-04-09T17:14:19.868Z,101068.69
2023-04-09T17:17:22.150Z,101067.47
2023-04-09T17:20:25.883Z,101069.97
2023-04-09T17:23:28.154Z,101070.84
2023-04-09T17:26:30.107Z,101073.13
2023-04-09T17:29:31.983Z,101078.84
2023-04-09T17:32:33.778Z,101081.31
2023-04-09T17:35:35.712Z,101084.38
2023-04-09T17:38:37.653Z,101093.09
2023-04-09T17:41:39.433Z,101090.81
2023-04-09T17:44:43.545Z,101091.31
2023-04-09T17:47:45.627Z,101100.31
2023-04-09T17:50:50.026Z,101105.03
2023-04-09T17:53:53.501Z,101107.03
2023-04-09T17:56:56.822Z,101112.47
2023-04-09T17:59:58.654Z,101108.22
2023-04-09T18:03:00.675Z,101107.69
2023-04-09T18:06:03.144Z,101121.38
2023-04-09T18:09:04.917Z,101116.31
2023-04-09T18:12:07.322Z,101114.81
2023-04-09T18:15:09.569Z,101121.25
2023-04-09T18:18:11.364Z,101112.72
2023-04-09T18:21:13.181Z,101120.38
2023-04-09T18:24:15.450Z,101113.66
2023-04-09T18:27:17.698Z,101110.31
2023-04-09T18:30:19.668Z,101113.28
2023-04-09T18:33:21.656Z,101127.78
2023-04-09T18:36:24.092Z,101128.16
2023-04-09T18:39:25.778Z,101134.38
2023-04-09T18:42:27.299Z,101137.47
2023-04-09T18:45:29.065Z,101143.00
2023-04-09T18:48:31.717Z,101145.06
2023-04-09T18:51:33.356Z,101146.50
2023-04-09T18:54:36.409Z,101142.31
2023-04-09T18:57:38.203Z,101142.66
2023-04-09T19:00:39.696Z,101144.56
2023-04-09T19:03:42.974Z,101148.50
2023-04-09T19:06:47.267Z,101149.59
2023-04-09T19:09:49.157Z,101148.94
2023-04-09T19:12:53.717Z,101149.28
2023-04-09T19:15:57.359Z,101149.66
2023-04-09T19:18:58.836Z,101145.69
2023-04-09T19:22:00.677Z,101159.91
2023-04-09T19:25:02.479Z,101159.19
2023-04-09T19:28:04.772Z,101153.88
2023-04-09T19:31:06.600Z,101157.88
2023-04-09T19:34:10.627Z,101158.28
2023-04-09T19:37:15.009Z,101167.13
2023-04-09T19:40:18.054Z,101165.53
2023-04-09T19:43:19.437Z,101170.09
2023-04-09T19:46:20.962Z,101166.09
2023-04-09T19:49:23.164Z,101167.28
2023-04-09T19:52:25.912Z,101164.00
2023-04-09T19:55:27.871Z,101165.91
2023-04-09T19:58:31.901Z,101160.81
2023-04-09T20:01:33.918Z,101162.75
2023-04-09T20:04:36.386Z,101164.56
2023-04-09T20:07:38.403Z,101168.25
2023-04-09T20:10:42.577Z,101163.38
2023-04-09T20:13:44.481Z,101163.53
2023-04-09T20:16:46.565Z,101157.31
2023-04-09T20:19:49.410Z,101167.16
2023-04-09T20:22:56.150Z,101161.97
2023-04-09T20:25:57.947Z,101177.69
2023-04-09T20:29:00.331Z,101169.78
2023-04-09T20:32:02.147Z,101169.97
2023-04-09T20:35:05.472Z,101163.78
2023-04-09T20:38:07.494Z,101167.41
2023-04-09T20:41:09.377Z,101170.22
2023-04-09T20:44:11.183Z,101174.88
2023-04-09T20:47:13.088Z,101167.91
2023-04-09T20:50:15.862Z,101167.25
2023-04-09T20:53:17.861Z,101157.94
2023-04-09T20:56:41.459Z,101158.91
2023-04-09T20:59:43.347Z,101154.53
2023-04-09T21:02:44.930Z,101153.09
2023-04-09T21:05:46.649Z,101150.56
2023-04-09T21:08:48.478Z,101148.03
2023-04-09T21:11:50.354Z,101152.34
2023-04-09T21:14:52.221Z,101151.44
2023-04-09T21:17:54.056Z,101153.34
2023-04-09T21:20:56.007Z,101153.41
2023-04-09T21:23:57.924Z,101151.69
2023-04-09T21:26:59.702Z,101145.56
2023-04-09T21:30:01.592Z,101139.53
2023-04-09T21:33:08.388Z,101148.44
2023-04-09T21:39:32.704Z,101156.53
2023-04-09T21:42:34.546Z,101161.13
2023-04-09T21:45:36.564Z,101154.25
2023-04-09T21:48:40.635Z,101165.75
2023-04-09T21:52:07.196Z,101157.97
2023-04-09T21:55:10.166Z,101148.47
2023-04-09T21:58:12.056Z,101150.31
2023-04-09T22:04:36.738Z,101146.88
2023-04-09T22:07:39.909Z,101147.13
2023-04-09T22:10:41.377Z,101141.13
2023-04-09T22:13:42.839Z,101145.66
2023-04-09T22:16:44.618Z,101149.16
2023-04-09T22:19:46.618Z,101144.84
2023-04-09T22:22:48.404Z,101142.19
2023-04-09T22:25:50.834Z,101143.00
2023-04-09T22:28:54.376Z,101145.66
2023-04-09T22:31:56.430Z,101152.91
2023-04-09T22:34:58.202Z,101152.25
2023-04-09T22:38:00.013Z,101155.84
2023-04-09T22:41:01.852Z,101160.22
2023-04-09T22:44:03.730Z,101161.91
2023-04-09T22:47:05.523Z,101165.44
2023-04-09T22:50:08.191Z,101165.50
2023-04-09T22:53:09.987Z,101163.72
2023-04-09T22:56:12.475Z,101155.03
2023-04-09T22:59:15.485Z,101165.63
2023-04-09T23:02:17.369Z,101168.38
2023-04-09T23:05:19.666Z,101162.31
2023-04-09T23:08:21.554Z,101157.16
2023-04-09T23:11:23.955Z,101155.56
2023-04-09T23:14:26.086Z,101164.47
2023-04-09T23:17:27.900Z,101165.25
2023-04-09T23:20:29.794Z,101155.75
2023-04-09T23:23:31.565Z,101160.16
2023-04-09T23:26:34.247Z,101155.88
2023-04-09T23:29:35.613Z,101163.00
2023-04-09T23:32:37.484Z,101160.41
2023-04-09T23:35:39.457Z,101153.41
2023-04-09T23:38:43.644Z,101155.25
2023-04-09T23:41:45.425Z,101151.06
2023-04-09T23:44:47.188Z,101148.34
2023-04-09T23:47:49.657Z,101151.06
2023-04-09T23:51:09.449Z,101150.28
2023-04-09T23:54:11.446Z,101151.25
2023-04-09T23:57:13.378Z,101154.78
